sensor_id;sensor_type;location;lat;lon;timestamp;P1;durP1;ratioP1;P2;durP2;ratioP2
34639;SDS011;22600;48.186;11.526;2022-10-13T00:00:26;5.18;;;3.60;;
34639;SDS011;22600;48.186;11.526;2022-10-13T00:02:52;6.72;;;3.35;;
34639;SDS011;22600;48.186;11.526;2022-10-13T00:05:17;4.85;;;3.00;;
34639;SDS011;22600;48.186;11.526;2022-10-13T00:07:43;4.53;;;3.25;;
34639;SDS011;22600;48.186;11.526;2022-10-13T00:10:09;5.10;;;3.28;;
34639;SDS011;22600;48.186;11.526;2022-10-13T00:12:35;8.13;;;3.40;;
34639;SDS011;22600;48.186;11.526;2022-10-13T00:15:03;4.60;;;3.10;;
34639;SDS011;22600;48.186;11.526;2022-10-13T00:17:30;4.03;;;3.05;;
34639;SDS011;22600;48.186;11.526;2022-10-13T00:19:55;4.35;;;3.08;;
34639;SDS011;22600;48.186;11.526;2022-10-13T00:22:21;6.75;;;3.35;;
34639;SDS011;22600;48.186;11.526;2022-10-13T00:24:50;7.07;;;3.20;;
34639;SDS011;22600;48.186;11.526;2022-10-13T00:27:16;5.97;;;3.38;;
34639;SDS011;22600;48.186;11.526;2022-10-13T00:29:42;6.13;;;3.10;;
34639;SDS011;22600;48.186;11.526;2022-10-13T00:32:07;5.72;;;3.35;;
34639;SDS011;22600;48.186;11.526;2022-10-13T00:34:33;5.65;;;3.08;;
34639;SDS011;22600;48.186;11.526;2022-10-13T00:37:01;4.97;;;3.08;;
34639;SDS011;22600;48.186;11.526;2022-10-13T00:39:27;3.88;;;2.83;;
34639;SDS011;22600;48.186;11.526;2022-10-13T00:41:52;4.93;;;3.22;;
34639;SDS011;22600;48.186;11.526;2022-10-13T00:47:21;4.63;;;3.00;;
34639;SDS011;22600;48.186;11.526;2022-10-13T00:49:47;4.13;;;2.53;;
34639;SDS011;22600;48.186;11.526;2022-10-13T00:52:14;5.55;;;2.95;;
34639;SDS011;22600;48.186;11.526;2022-10-13T00:54:42;4.55;;;2.90;;
34639;SDS011;22600;48.186;11.526;2022-10-13T00:57:09;5.68;;;3.13;;
34639;SDS011;22600;48.186;11.526;2022-10-13T00:59:35;5.47;;;2.97;;
34639;SDS011;22600;48.186;11.526;2022-10-13T01:02:02;4.95;;;3.35;;
34639;SDS011;22600;48.186;11.526;2022-10-13T01:04:30;2.97;;;2.58;;
34639;SDS011;22600;48.186;11.526;2022-10-13T01:07:04;4.10;;;2.80;;
34639;SDS011;22600;48.186;11.526;2022-10-13T01:09:30;5.43;;;2.80;;
34639;SDS011;22600;48.186;11.526;2022-10-13T01:17:32;3.78;;;2.85;;
34639;SDS011;22600;48.186;11.526;2022-10-13T01:22:52;4.75;;;2.55;;
34639;SDS011;22600;48.186;11.526;2022-10-13T01:25:48;4.90;;;2.88;;
34639;SDS011;22600;48.186;11.526;2022-10-13T01:30:46;5.28;;;2.80;;
34639;SDS011;22600;48.186;11.526;2022-10-13T01:39:05;6.40;;;2.80;;
34639;SDS011;22600;48.186;11.526;2022-10-13T01:41:36;4.68;;;2.83;;
34639;SDS011;22600;48.186;11.526;2022-10-13T01:46:36;4.05;;;2.90;;
34639;SDS011;22600;48.186;11.526;2022-10-13T01:49:05;4.72;;;2.90;;
34639;SDS011;22600;48.186;11.526;2022-10-13T01:51:34;4.45;;;2.63;;
34639;SDS011;22600;48.186;11.526;2022-10-13T01:54:00;4.40;;;2.75;;
34639;SDS011;22600;48.186;11.526;2022-10-13T01:56:26;3.25;;;2.40;;
34639;SDS011;22600;48.186;11.526;2022-10-13T01:58:52;4.75;;;2.92;;
34639;SDS011;22600;48.186;11.526;2022-10-13T02:06:40;4.22;;;2.78;;
34639;SDS011;22600;48.186;11.526;2022-10-13T02:09:25;5.00;;;2.92;;
34639;SDS011;22600;48.186;11.526;2022-10-13T02:12:01;3.13;;;2.70;;
34639;SDS011;22600;48.186;11.526;2022-10-13T02:14:32;5.22;;;2.92;;
34639;SDS011;22600;48.186;11.526;2022-10-13T02:17:02;4.90;;;2.70;;
34639;SDS011;22600;48.186;11.526;2022-10-13T02:19:29;3.67;;;2.90;;
34639;SDS011;22600;48.186;11.526;2022-10-13T02:21:59;5.80;;;3.00;;
34639;SDS011;22600;48.186;11.526;2022-10-13T02:24:24;4.68;;;2.85;;
34639;SDS011;22600;48.186;11.526;2022-10-13T02:26:50;5.00;;;3.00;;
34639;SDS011;22600;48.186;11.526;2022-10-13T02:29:17;5.85;;;3.15;;
34639;SDS011;22600;48.186;11.526;2022-10-13T02:31:43;3.55;;;2.75;;
34639;SDS011;22600;48.186;11.526;2022-10-13T02:34:09;4.38;;;2.90;;
34639;SDS011;22600;48.186;11.526;2022-10-13T02:36:35;4.43;;;2.70;;
34639;SDS011;22600;48.186;11.526;2022-10-13T02:39:04;4.15;;;2.85;;
34639;SDS011;22600;48.186;11.526;2022-10-13T02:41:31;4.03;;;2.58;;
34639;SDS011;22600;48.186;11.526;2022-10-13T02:43:57;4.45;;;2.70;;
34639;SDS011;22600;48.186;11.526;2022-10-13T02:46:23;5.18;;;2.83;;
34639;SDS011;22600;48.186;11.526;2022-10-13T02:48:49;5.80;;;2.50;;
34639;SDS011;22600;48.186;11.526;2022-10-13T02:51:14;3.38;;;2.38;;
34639;SDS011;22600;48.186;11.526;2022-10-13T02:53:40;4.93;;;2.65;;
34639;SDS011;22600;48.186;11.526;2022-10-13T02:56:06;3.92;;;2.88;;
34639;SDS011;22600;48.186;11.526;2022-10-13T02:58:32;7.07;;;2.90;;
34639;SDS011;22600;48.186;11.526;2022-10-13T03:01:31;3.15;;;2.30;;
34639;SDS011;22600;48.186;11.526;2022-10-13T03:03:50;4.03;;;2.42;;
34639;SDS011;22600;48.186;11.526;2022-10-13T03:06:15;5.43;;;2.90;;
34639;SDS011;22600;48.186;11.526;2022-10-13T03:08:41;3.75;;;2.72;;
34639;SDS011;22600;48.186;11.526;2022-10-13T03:11:06;4.35;;;2.80;;
34639;SDS011;22600;48.186;11.526;2022-10-13T03:13:32;4.18;;;2.50;;
34639;SDS011;22600;48.186;11.526;2022-10-13T03:15:57;3.70;;;2.58;;
34639;SDS011;22600;48.186;11.526;2022-10-13T03:18:23;4.35;;;2.60;;
34639;SDS011;22600;48.186;11.526;2022-10-13T03:20:56;5.45;;;2.80;;
34639;SDS011;22600;48.186;11.526;2022-10-13T03:23:23;3.40;;;2.80;;
34639;SDS011;22600;48.186;11.526;2022-10-13T03:25:50;4.80;;;2.60;;
34639;SDS011;22600;48.186;11.526;2022-10-13T03:28:15;4.70;;;2.30;;
34639;SDS011;22600;48.186;11.526;2022-10-13T03:30:41;3.58;;;2.55;;
34639;SDS011;22600;48.186;11.526;2022-10-13T03:33:07;5.20;;;2.83;;
34639;SDS011;22600;48.186;11.526;2022-10-13T03:35:32;4.85;;;2.60;;
34639;SDS011;22600;48.186;11.526;2022-10-13T03:37:58;7.13;;;2.70;;
34639;SDS011;22600;48.186;11.526;2022-10-13T03:40:23;4.28;;;2.58;;
34639;SDS011;22600;48.186;11.526;2022-10-13T03:42:49;3.03;;;2.42;;
34639;SDS011;22600;48.186;11.526;2022-10-13T03:45:14;6.07;;;2.60;;
34639;SDS011;22600;48.186;11.526;2022-10-13T03:47:40;4.65;;;2.58;;
34639;SDS011;22600;48.186;11.526;2022-10-13T03:50:06;4.15;;;2.63;;
34639;SDS011;22600;48.186;11.526;2022-10-13T03:52:32;5.88;;;2.60;;
34639;SDS011;22600;48.186;11.526;2022-10-13T03:54:57;4.57;;;2.47;;
34639;SDS011;22600;48.186;11.526;2022-10-13T03:57:23;6.50;;;2.70;;
34639;SDS011;22600;48.186;11.526;2022-10-13T03:59:49;4.53;;;2.70;;
34639;SDS011;22600;48.186;11.526;2022-10-13T04:02:14;4.72;;;2.47;;
34639;SDS011;22600;48.186;11.526;2022-10-13T04:04:40;6.50;;;2.55;;
34639;SDS011;22600;48.186;11.526;2022-10-13T04:07:06;5.18;;;2.53;;
34639;SDS011;22600;48.186;11.526;2022-10-13T04:09:31;4.53;;;2.50;;
34639;SDS011;22600;48.186;11.526;2022-10-13T04:11:57;3.50;;;2.50;;
34639;SDS011;22600;48.186;11.526;2022-10-13T04:14:23;4.82;;;2.67;;
34639;SDS011;22600;48.186;11.526;2022-10-13T04:16:49;3.60;;;2.50;;
34639;SDS011;22600;48.186;11.526;2022-10-13T04:19:14;3.30;;;2.35;;
34639;SDS011;22600;48.186;11.526;2022-10-13T04:21:40;4.78;;;2.50;;
34639;SDS011;22600;48.186;11.526;2022-10-13T04:24:07;15.32;;;2.67;;
34639;SDS011;22600;48.186;11.526;2022-10-13T04:26:35;6.80;;;2.72;;
34639;SDS011;22600;48.186;11.526;2022-10-13T04:29:02;5.45;;;2.40;;
34639;SDS011;22600;48.186;11.526;2022-10-13T04:31:29;5.70;;;2.70;;
34639;SDS011;22600;48.186;11.526;2022-10-13T04:33:55;5.03;;;2.83;;
34639;SDS011;22600;48.186;11.526;2022-10-13T04:36:22;4.97;;;3.10;;
34639;SDS011;22600;48.186;11.526;2022-10-13T04:38:48;5.18;;;3.15;;
34639;SDS011;22600;48.186;11.526;2022-10-13T04:41:14;8.40;;;3.55;;
34639;SDS011;22600;48.186;11.526;2022-10-13T04:43:41;6.10;;;3.17;;
34639;SDS011;22600;48.186;11.526;2022-10-13T04:48:41;11.85;;;5.47;;
34639;SDS011;22600;48.186;11.526;2022-10-13T04:51:08;11.90;;;4.50;;
34639;SDS011;22600;48.186;11.526;2022-10-13T04:53:36;9.27;;;3.97;;
34639;SDS011;22600;48.186;11.526;2022-10-13T04:56:02;7.40;;;3.90;;
34639;SDS011;22600;48.186;11.526;2022-10-13T04:58:29;5.80;;;3.13;;
34639;SDS011;22600;48.186;11.526;2022-10-13T05:00:55;5.50;;;3.38;;
34639;SDS011;22600;48.186;11.526;2022-10-13T05:03:21;5.95;;;3.13;;
34639;SDS011;22600;48.186;11.526;2022-10-13T05:05:47;4.85;;;3.20;;
34639;SDS011;22600;48.186;11.526;2022-10-13T05:08:13;5.70;;;3.50;;
34639;SDS011;22600;48.186;11.526;2022-10-13T05:10:39;6.65;;;3.50;;
34639;SDS011;22600;48.186;11.526;2022-10-13T05:13:04;5.70;;;3.65;;
34639;SDS011;22600;48.186;11.526;2022-10-13T05:15:30;6.25;;;3.40;;
34639;SDS011;22600;48.186;11.526;2022-10-13T05:17:57;5.38;;;3.60;;
34639;SDS011;22600;48.186;11.526;2022-10-13T05:20:23;7.32;;;3.65;;
34639;SDS011;22600;48.186;11.526;2022-10-13T05:22:49;5.65;;;3.28;;
34639;SDS011;22600;48.186;11.526;2022-10-13T05:25:14;5.72;;;3.42;;
34639;SDS011;22600;48.186;11.526;2022-10-13T05:27:40;5.47;;;3.55;;
34639;SDS011;22600;48.186;11.526;2022-10-13T05:30:06;6.70;;;3.60;;
34639;SDS011;22600;48.186;11.526;2022-10-13T05:32:33;6.90;;;3.35;;
34639;SDS011;22600;48.186;11.526;2022-10-13T05:34:59;5.25;;;3.70;;
34639;SDS011;22600;48.186;11.526;2022-10-13T05:37:25;5.65;;;2.92;;
34639;SDS011;22600;48.186;11.526;2022-10-13T05:39:51;5.63;;;3.50;;
34639;SDS011;22600;48.186;11.526;2022-10-13T05:42:16;5.60;;;3.33;;
34639;SDS011;22600;48.186;11.526;2022-10-13T05:44:42;5.72;;;3.30;;
34639;SDS011;22600;48.186;11.526;2022-10-13T05:47:08;5.38;;;3.38;;
34639;SDS011;22600;48.186;11.526;2022-10-13T05:49:33;5.20;;;3.40;;
34639;SDS011;22600;48.186;11.526;2022-10-13T05:52:01;4.78;;;3.22;;
34639;SDS011;22600;48.186;11.526;2022-10-13T05:55:03;4.37;;;3.27;;
34639;SDS011;22600;48.186;11.526;2022-10-13T05:57:32;6.35;;;3.20;;
34639;SDS011;22600;48.186;11.526;2022-10-13T06:00:07;6.72;;;3.63;;
34639;SDS011;22600;48.186;11.526;2022-10-13T06:02:36;4.45;;;3.58;;
34639;SDS011;22600;48.186;11.526;2022-10-13T06:05:13;4.63;;;3.35;;
34639;SDS011;22600;48.186;11.526;2022-10-13T06:07:42;6.73;;;3.40;;
34639;SDS011;22600;48.186;11.526;2022-10-13T06:10:10;4.93;;;3.13;;
34639;SDS011;22600;48.186;11.526;2022-10-13T06:12:36;5.22;;;3.33;;
34639;SDS011;22600;48.186;11.526;2022-10-13T06:15:02;7.00;;;3.20;;
34639;SDS011;22600;48.186;11.526;2022-10-13T06:17:28;4.47;;;3.25;;
34639;SDS011;22600;48.186;11.526;2022-10-13T06:19:53;4.78;;;3.50;;
34639;SDS011;22600;48.186;11.526;2022-10-13T06:22:19;5.05;;;3.60;;
34639;SDS011;22600;48.186;11.526;2022-10-13T06:24:45;4.85;;;3.22;;
34639;SDS011;22600;48.186;11.526;2022-10-13T06:27:11;6.85;;;3.70;;
34639;SDS011;22600;48.186;11.526;2022-10-13T06:29:37;5.18;;;3.38;;
34639;SDS011;22600;48.186;11.526;2022-10-13T06:32:03;4.63;;;2.97;;
34639;SDS011;22600;48.186;11.526;2022-10-13T06:34:29;4.72;;;3.15;;
34639;SDS011;22600;48.186;11.526;2022-10-13T06:36:54;3.85;;;3.17;;
34639;SDS011;22600;48.186;11.526;2022-10-13T06:39:20;4.85;;;3.30;;
34639;SDS011;22600;48.186;11.526;2022-10-13T06:41:45;4.72;;;3.25;;
34639;SDS011;22600;48.186;11.526;2022-10-13T06:44:12;4.25;;;3.35;;
34639;SDS011;22600;48.186;11.526;2022-10-13T06:46:38;5.30;;;3.20;;
34639;SDS011;22600;48.186;11.526;2022-10-13T06:49:04;5.28;;;3.47;;
34639;SDS011;22600;48.186;11.526;2022-10-13T06:51:29;5.22;;;3.50;;
34639;SDS011;22600;48.186;11.526;2022-10-13T06:53:55;5.13;;;3.20;;
34639;SDS011;22600;48.186;11.526;2022-10-13T06:56:21;5.78;;;3.35;;
34639;SDS011;22600;48.186;11.526;2022-10-13T06:58:47;4.38;;;3.05;;
34639;SDS011;22600;48.186;11.526;2022-10-13T07:01:13;4.13;;;3.05;;
34639;SDS011;22600;48.186;11.526;2022-10-13T07:03:39;4.63;;;3.08;;
34639;SDS011;22600;48.186;11.526;2022-10-13T07:06:05;3.55;;;2.80;;
34639;SDS011;22600;48.186;11.526;2022-10-13T07:08:31;5.28;;;3.47;;
34639;SDS011;22600;48.186;11.526;2022-10-13T07:10:58;5.18;;;3.30;;
34639;SDS011;22600;48.186;11.526;2022-10-13T07:13:29;5.05;;;3.17;;
34639;SDS011;22600;48.186;11.526;2022-10-13T07:15:55;5.57;;;3.42;;
34639;SDS011;22600;48.186;11.526;2022-10-13T07:18:20;5.15;;;3.28;;
34639;SDS011;22600;48.186;11.526;2022-10-13T07:20:46;4.82;;;3.42;;
34639;SDS011;22600;48.186;11.526;2022-10-13T07:23:12;5.25;;;3.20;;
34639;SDS011;22600;48.186;11.526;2022-10-13T07:25:37;4.05;;;3.00;;
34639;SDS011;22600;48.186;11.526;2022-10-13T07:28:03;6.05;;;3.50;;
34639;SDS011;22600;48.186;11.526;2022-10-13T07:30:28;4.40;;;3.15;;
34639;SDS011;22600;48.186;11.526;2022-10-13T07:32:54;4.78;;;3.25;;
34639;SDS011;22600;48.186;11.526;2022-10-13T07:35:20;5.03;;;3.05;;
34639;SDS011;22600;48.186;11.526;2022-10-13T07:37:46;4.72;;;3.33;;
34639;SDS011;22600;48.186;11.526;2022-10-13T07:40:11;4.65;;;3.33;;
34639;SDS011;22600;48.186;11.526;2022-10-13T07:42:37;4.95;;;3.38;;
34639;SDS011;22600;48.186;11.526;2022-10-13T07:45:03;5.97;;;3.63;;
34639;SDS011;22600;48.186;11.526;2022-10-13T07:47:29;6.45;;;3.78;;
34639;SDS011;22600;48.186;11.526;2022-10-13T07:49:54;6.15;;;3.40;;
34639;SDS011;22600;48.186;11.526;2022-10-13T07:52:20;5.00;;;3.22;;
34639;SDS011;22600;48.186;11.526;2022-10-13T07:54:46;5.47;;;3.38;;
34639;SDS011;22600;48.186;11.526;2022-10-13T07:57:12;6.45;;;3.60;;
34639;SDS011;22600;48.186;11.526;2022-10-13T07:59:37;5.50;;;3.33;;
34639;SDS011;22600;48.186;11.526;2022-10-13T08:02:03;4.32;;;3.10;;
34639;SDS011;22600;48.186;11.526;2022-10-13T08:04:29;4.13;;;3.03;;
34639;SDS011;22600;48.186;11.526;2022-10-13T08:06:56;4.50;;;3.45;;
34639;SDS011;22600;48.186;11.526;2022-10-13T08:09:22;5.63;;;3.45;;
34639;SDS011;22600;48.186;11.526;2022-10-13T08:11:48;4.57;;;3.22;;
34639;SDS011;22600;48.186;11.526;2022-10-13T08:14:13;4.03;;;3.15;;
34639;SDS011;22600;48.186;11.526;2022-10-13T08:16:39;4.97;;;3.67;;
34639;SDS011;22600;48.186;11.526;2022-10-13T08:19:08;4.00;;;3.03;;
34639;SDS011;22600;48.186;11.526;2022-10-13T08:21:33;4.95;;;3.25;;
34639;SDS011;22600;48.186;11.526;2022-10-13T08:23:59;6.07;;;3.92;;
34639;SDS011;22600;48.186;11.526;2022-10-13T08:26:25;6.28;;;3.42;;
34639;SDS011;22600;48.186;11.526;2022-10-13T08:28:52;6.57;;;3.70;;
34639;SDS011;22600;48.186;11.526;2022-10-13T08:31:18;5.03;;;3.33;;
34639;SDS011;22600;48.186;11.526;2022-10-13T08:33:44;3.85;;;3.00;;
34639;SDS011;22600;48.186;11.526;2022-10-13T08:36:12;4.75;;;3.05;;
34639;SDS011;22600;48.186;11.526;2022-10-13T08:38:38;3.72;;;2.90;;
34639;SDS011;22600;48.186;11.526;2022-10-13T08:41:11;3.97;;;2.80;;
34639;SDS011;22600;48.186;11.526;2022-10-13T08:43:44;4.18;;;2.92;;
34639;SDS011;22600;48.186;11.526;2022-10-13T08:46:27;4.50;;;2.75;;
34639;SDS011;22600;48.186;11.526;2022-10-13T08:48:57;5.95;;;3.28;;
34639;SDS011;22600;48.186;11.526;2022-10-13T08:51:25;4.40;;;3.20;;
34639;SDS011;22600;48.186;11.526;2022-10-13T08:53:54;5.07;;;3.00;;
34639;SDS011;22600;48.186;11.526;2022-10-13T08:56:23;3.90;;;2.95;;
34639;SDS011;22600;48.186;11.526;2022-10-13T08:58:51;4.45;;;2.63;;
34639;SDS011;22600;48.186;11.526;2022-10-13T09:01:21;3.85;;;3.03;;
34639;SDS011;22600;48.186;11.526;2022-10-13T09:03:53;4.88;;;3.17;;
34639;SDS011;22600;48.186;11.526;2022-10-13T09:09:13;3.97;;;2.70;;
34639;SDS011;22600;48.186;11.526;2022-10-13T09:11:44;3.35;;;2.92;;
34639;SDS011;22600;48.186;11.526;2022-10-13T09:16:51;3.50;;;2.72;;
34639;SDS011;22600;48.186;11.526;2022-10-13T09:21:47;5.32;;;2.80;;
34639;SDS011;22600;48.186;11.526;2022-10-13T09:24:33;3.45;;;2.67;;
34639;SDS011;22600;48.186;11.526;2022-10-13T09:27:04;4.32;;;2.80;;
34639;SDS011;22600;48.186;11.526;2022-10-13T09:29:38;4.78;;;2.90;;
34639;SDS011;22600;48.186;11.526;2022-10-13T09:34:42;5.25;;;3.10;;
34639;SDS011;22600;48.186;11.526;2022-10-13T09:37:18;3.97;;;2.80;;
34639;SDS011;22600;48.186;11.526;2022-10-13T09:39:46;3.90;;;2.83;;
34639;SDS011;22600;48.186;11.526;2022-10-13T09:42:26;3.42;;;2.83;;
34639;SDS011;22600;48.186;11.526;2022-10-13T09:44:55;3.58;;;2.78;;
34639;SDS011;22600;48.186;11.526;2022-10-13T09:47:22;3.80;;;2.78;;
34639;SDS011;22600;48.186;11.526;2022-10-13T09:49:58;4.90;;;2.80;;
34639;SDS011;22600;48.186;11.526;2022-10-13T09:52:24;3.60;;;2.78;;
34639;SDS011;22600;48.186;11.526;2022-10-13T09:54:50;3.78;;;2.60;;
34639;SDS011;22600;48.186;11.526;2022-10-13T09:57:19;4.55;;;2.88;;
34639;SDS011;22600;48.186;11.526;2022-10-13T09:59:51;3.85;;;2.80;;
34639;SDS011;22600;48.186;11.526;2022-10-13T10:02:34;3.40;;;2.70;;
34639;SDS011;22600;48.186;11.526;2022-10-13T10:05:06;4.15;;;2.70;;
34639;SDS011;22600;48.186;11.526;2022-10-13T10:07:42;3.85;;;2.75;;
34639;SDS011;22600;48.186;11.526;2022-10-13T10:10:12;3.00;;;2.60;;
34639;SDS011;22600;48.186;11.526;2022-10-13T10:12:48;3.00;;;2.55;;
34639;SDS011;22600;48.186;11.526;2022-10-13T10:15:16;4.28;;;2.75;;
34639;SDS011;22600;48.186;11.526;2022-10-13T10:17:54;3.88;;;2.80;;
34639;SDS011;22600;48.186;11.526;2022-10-13T10:20:32;4.45;;;3.08;;
34639;SDS011;22600;48.186;11.526;2022-10-13T10:23:37;4.10;;;2.75;;
34639;SDS011;22600;48.186;11.526;2022-10-13T10:26:12;3.88;;;2.50;;
34639;SDS011;22600;48.186;11.526;2022-10-13T10:34:25;3.55;;;2.70;;
34639;SDS011;22600;48.186;11.526;2022-10-13T10:37:14;4.22;;;2.90;;
34639;SDS011;22600;48.186;11.526;2022-10-13T10:42:53;4.63;;;2.85;;
34639;SDS011;22600;48.186;11.526;2022-10-13T10:45:40;4.82;;;2.80;;
34639;SDS011;22600;48.186;11.526;2022-10-13T10:48:16;4.60;;;2.63;;
34639;SDS011;22600;48.186;11.526;2022-10-13T10:50:48;4.22;;;2.95;;
34639;SDS011;22600;48.186;11.526;2022-10-13T10:53:28;4.60;;;2.75;;
34639;SDS011;22600;48.186;11.526;2022-10-13T10:58:42;17.20;;;7.28;;
34639;SDS011;22600;48.186;11.526;2022-10-13T11:01:27;25.63;;;10.02;;
34639;SDS011;22600;48.186;11.526;2022-10-13T11:04:16;29.15;;;9.82;;
34639;SDS011;22600;48.186;11.526;2022-10-13T11:06:48;31.27;;;9.80;;
34639;SDS011;22600;48.186;11.526;2022-10-13T11:09:13;26.23;;;9.00;;
34639;SDS011;22600;48.186;11.526;2022-10-13T11:11:59;25.88;;;8.02;;
34639;SDS011;22600;48.186;11.526;2022-10-13T11:14:28;14.07;;;5.82;;
34639;SDS011;22600;48.186;11.526;2022-10-13T11:19:27;12.32;;;4.78;;
34639;SDS011;22600;48.186;11.526;2022-10-13T11:52:10;5.78;;;3.47;;
34639;SDS011;22600;48.186;11.526;2022-10-13T11:54:51;5.20;;;3.25;;
34639;SDS011;22600;48.186;11.526;2022-10-13T11:57:23;6.45;;;4.10;;
34639;SDS011;22600;48.186;11.526;2022-10-13T11:59:52;7.68;;;4.45;;
34639;SDS011;22600;48.186;11.526;2022-10-13T12:02:20;8.77;;;4.63;;
34639;SDS011;22600;48.186;11.526;2022-10-13T12:05:00;7.50;;;4.18;;
34639;SDS011;22600;48.186;11.526;2022-10-13T12:07:44;7.90;;;5.00;;
34639;SDS011;22600;48.186;11.526;2022-10-13T12:10:21;11.93;;;5.15;;
34639;SDS011;22600;48.186;11.526;2022-10-13T12:12:53;9.95;;;4.50;;
34639;SDS011;22600;48.186;11.526;2022-10-13T12:15:38;9.48;;;5.13;;
34639;SDS011;22600;48.186;11.526;2022-10-13T12:18:20;8.02;;;4.88;;
34639;SDS011;22600;48.186;11.526;2022-10-13T12:20:52;10.27;;;5.05;;
34639;SDS011;22600;48.186;11.526;2022-10-13T12:23:19;12.73;;;5.28;;
34639;SDS011;22600;48.186;11.526;2022-10-13T12:25:45;11.50;;;5.13;;
34639;SDS011;22600;48.186;11.526;2022-10-13T12:28:16;11.82;;;5.50;;
34639;SDS011;22600;48.186;11.526;2022-10-13T12:30:47;13.57;;;5.80;;
34639;SDS011;22600;48.186;11.526;2022-10-13T12:33:29;13.07;;;6.00;;
34639;SDS011;22600;48.186;11.526;2022-10-13T12:36:18;14.75;;;6.50;;
34639;SDS011;22600;48.186;11.526;2022-10-13T12:38:49;20.77;;;6.40;;
34639;SDS011;22600;48.186;11.526;2022-10-13T12:41:17;16.25;;;5.97;;
34639;SDS011;22600;48.186;11.526;2022-10-13T12:43:48;14.55;;;5.72;;
34639;SDS011;22600;48.186;11.526;2022-10-13T12:46:33;13.20;;;5.30;;
34639;SDS011;22600;48.186;11.526;2022-10-13T12:49:04;11.88;;;4.93;;
34639;SDS011;22600;48.186;11.526;2022-10-13T12:51:31;10.48;;;5.32;;
34639;SDS011;22600;48.186;11.526;2022-10-13T12:53:57;11.60;;;4.97;;
34639;SDS011;22600;48.186;11.526;2022-10-13T12:56:27;9.85;;;5.03;;
34639;SDS011;22600;48.186;11.526;2022-10-13T12:58:55;12.07;;;5.85;;
34639;SDS011;22600;48.186;11.526;2022-10-13T13:01:25;11.38;;;5.07;;
34639;SDS011;22600;48.186;11.526;2022-10-13T13:04:01;9.48;;;5.13;;
34639;SDS011;22600;48.186;11.526;2022-10-13T13:07:02;9.90;;;4.68;;
34639;SDS011;22600;48.186;11.526;2022-10-13T13:09:30;9.52;;;5.00;;
34639;SDS011;22600;48.186;11.526;2022-10-13T13:12:18;8.68;;;4.78;;
34639;SDS011;22600;48.186;11.526;2022-10-13T13:14:47;7.97;;;4.88;;
34639;SDS011;22600;48.186;11.526;2022-10-13T13:19:48;6.38;;;4.30;;
34639;SDS011;22600;48.186;11.526;2022-10-13T13:22:14;7.47;;;4.45;;
34639;SDS011;22600;48.186;11.526;2022-10-13T13:24:40;7.88;;;4.80;;
34639;SDS011;22600;48.186;11.526;2022-10-13T13:27:17;7.68;;;4.30;;
34639;SDS011;22600;48.186;11.526;2022-10-13T13:29:43;7.18;;;4.10;;
34639;SDS011;22600;48.186;11.526;2022-10-13T13:32:13;7.47;;;4.63;;
34639;SDS011;22600;48.186;11.526;2022-10-13T13:34:40;8.43;;;4.53;;
34639;SDS011;22600;48.186;11.526;2022-10-13T13:37:21;11.02;;;4.25;;
34639;SDS011;22600;48.186;11.526;2022-10-13T13:40:01;9.30;;;4.45;;
34639;SDS011;22600;48.186;11.526;2022-10-13T13:42:28;7.95;;;4.47;;
34639;SDS011;22600;48.186;11.526;2022-10-13T13:44:54;8.50;;;4.53;;
34639;SDS011;22600;48.186;11.526;2022-10-13T13:47:21;8.18;;;4.50;;
34639;SDS011;22600;48.186;11.526;2022-10-13T13:49:49;9.48;;;4.53;;
34639;SDS011;22600;48.186;11.526;2022-10-13T13:52:16;8.25;;;4.47;;
34639;SDS011;22600;48.186;11.526;2022-10-13T13:54:43;7.22;;;4.05;;
34639;SDS011;22600;48.186;11.526;2022-10-13T13:57:09;10.32;;;4.57;;
34639;SDS011;22600;48.186;11.526;2022-10-13T13:59:36;8.55;;;4.55;;
34639;SDS011;22600;48.186;11.526;2022-10-13T14:02:02;8.23;;;3.92;;
34639;SDS011;22600;48.186;11.526;2022-10-13T14:04:29;8.63;;;4.38;;
34639;SDS011;22600;48.186;11.526;2022-10-13T14:06:54;6.85;;;4.22;;
34639;SDS011;22600;48.186;11.526;2022-10-13T14:09:20;10.70;;;4.70;;
34639;SDS011;22600;48.186;11.526;2022-10-13T14:11:46;9.07;;;4.13;;
34639;SDS011;22600;48.186;11.526;2022-10-13T14:14:11;8.05;;;4.40;;
34639;SDS011;22600;48.186;11.526;2022-10-13T14:16:37;6.53;;;3.90;;
34639;SDS011;22600;48.186;11.526;2022-10-13T14:19:05;8.05;;;4.60;;
34639;SDS011;22600;48.186;11.526;2022-10-13T14:21:31;7.28;;;4.22;;
34639;SDS011;22600;48.186;11.526;2022-10-13T14:23:56;7.10;;;4.32;;
34639;SDS011;22600;48.186;11.526;2022-10-13T14:26:22;8.45;;;4.00;;
34639;SDS011;22600;48.186;11.526;2022-10-13T14:28:48;9.85;;;4.53;;
34639;SDS011;22600;48.186;11.526;2022-10-13T14:31:13;8.50;;;4.10;;
34639;SDS011;22600;48.186;11.526;2022-10-13T14:33:39;6.38;;;3.90;;
34639;SDS011;22600;48.186;11.526;2022-10-13T14:36:05;8.95;;;4.07;;
34639;SDS011;22600;48.186;11.526;2022-10-13T14:38:32;9.18;;;3.92;;
34639;SDS011;22600;48.186;11.526;2022-10-13T14:40:59;7.78;;;4.40;;
34639;SDS011;22600;48.186;11.526;2022-10-13T14:43:25;9.48;;;4.25;;
34639;SDS011;22600;48.186;11.526;2022-10-13T14:45:52;6.78;;;4.13;;
34639;SDS011;22600;48.186;11.526;2022-10-13T14:48:18;7.60;;;4.22;;
34639;SDS011;22600;48.186;11.526;2022-10-13T14:50:43;5.93;;;4.00;;
34639;SDS011;22600;48.186;11.526;2022-10-13T14:53:09;7.90;;;3.95;;
34639;SDS011;22600;48.186;11.526;2022-10-13T14:55:39;6.07;;;4.10;;
34639;SDS011;22600;48.186;11.526;2022-10-13T14:58:06;7.07;;;4.07;;
34639;SDS011;22600;48.186;11.526;2022-10-13T15:00:32;5.10;;;3.85;;
34639;SDS011;22600;48.186;11.526;2022-10-13T15:02:57;6.55;;;3.90;;
34639;SDS011;22600;48.186;11.526;2022-10-13T15:05:23;7.32;;;4.00;;
34639;SDS011;22600;48.186;11.526;2022-10-13T15:07:48;7.80;;;4.13;;
34639;SDS011;22600;48.186;11.526;2022-10-13T15:10:14;5.00;;;3.83;;
34639;SDS011;22600;48.186;11.526;2022-10-13T15:12:40;6.07;;;3.90;;
34639;SDS011;22600;48.186;11.526;2022-10-13T15:15:05;5.68;;;3.92;;
34639;SDS011;22600;48.186;11.526;2022-10-13T15:17:31;5.63;;;3.65;;
34639;SDS011;22600;48.186;11.526;2022-10-13T15:19:57;5.28;;;3.85;;
34639;SDS011;22600;48.186;11.526;2022-10-13T15:22:23;6.63;;;4.20;;
34639;SDS011;22600;48.186;11.526;2022-10-13T15:24:49;6.43;;;4.20;;
34639;SDS011;22600;48.186;11.526;2022-10-13T15:27:15;5.07;;;3.75;;
34639;SDS011;22600;48.186;11.526;2022-10-13T15:29:40;7.18;;;4.00;;
34639;SDS011;22600;48.186;11.526;2022-10-13T15:32:10;6.28;;;4.00;;
34639;SDS011;22600;48.186;11.526;2022-10-13T15:34:40;5.95;;;4.00;;
34639;SDS011;22600;48.186;11.526;2022-10-13T15:37:06;6.82;;;4.13;;
34639;SDS011;22600;48.186;11.526;2022-10-13T15:39:31;5.63;;;3.80;;
34639;SDS011;22600;48.186;11.526;2022-10-13T15:41:57;4.22;;;3.50;;
34639;SDS011;22600;48.186;11.526;2022-10-13T15:44:23;8.60;;;3.75;;
34639;SDS011;22600;48.186;11.526;2022-10-13T15:46:49;5.80;;;3.75;;
34639;SDS011;22600;48.186;11.526;2022-10-13T15:49:19;5.10;;;3.83;;
34639;SDS011;22600;48.186;11.526;2022-10-13T15:51:45;4.45;;;3.60;;
34639;SDS011;22600;48.186;11.526;2022-10-13T15:54:10;8.50;;;4.05;;
34639;SDS011;22600;48.186;11.526;2022-10-13T15:56:36;6.53;;;3.80;;
34639;SDS011;22600;48.186;11.526;2022-10-13T15:59:02;5.25;;;3.40;;
34639;SDS011;22600;48.186;11.526;2022-10-13T16:01:28;6.53;;;3.78;;
34639;SDS011;22600;48.186;11.526;2022-10-13T16:03:54;5.32;;;3.30;;
34639;SDS011;22600;48.186;11.526;2022-10-13T16:06:19;6.68;;;3.35;;
34639;SDS011;22600;48.186;11.526;2022-10-13T16:08:46;5.25;;;3.25;;